sensor_id;sensor_type;location;lat;lon;timestamp;pressure;altitude;pressure_sealevel;temperature;humidity
77212;BME280;66206;0.000;0.000;2023-05-19T00:00:56;98500.78;;;22.36;22.91
77212;BME280;66206;0.000;0.000;2023-05-19T00:03:24;98500.64;;;22.45;22.85
77212;BME280;66206;0.000;0.000;2023-05-19T00:05:51;98496.73;;;22.48;22.85
77212;BME280;66206;0.000;0.000;2023-05-19T00:08:18;98495.07;;;22.37;22.96
77212;BME280;66206;0.000;0.000;2023-05-19T00:10:46;98493.67;;;22.39;22.89
77212;BME280;66206;0.000;0.000;2023-05-19T00:13:13;98492.46;;;22.40;22.90
77212;BME280;66206;0.000;0.000;2023-05-19T00:15:40;98492.33;;;22.22;22.95
77212;BME280;66206;0.000;0.000;2023-05-19T00:18:07;98495.90;;;22.30;22.94
77212;BME280;66206;0.000;0.000;2023-05-19T00:20:34;98494.88;;;22.27;23.03
77212;BME280;66206;0.000;0.000;2023-05-19T00:23:00;98492.53;;;22.19;22.97
77212;BME280;66206;0.000;0.000;2023-05-19T00:25:27;98488.68;;;22.17;23.00
77212;BME280;66206;0.000;0.000;2023-05-19T00:27:54;98484.91;;;22.10;23.02
77212;BME280;66206;0.000;0.000;2023-05-19T00:30:21;98484.24;;;22.31;22.96
77212;BME280;66206;0.000;0.000;2023-05-19T00:32:47;98482.68;;;21.97;23.04
77212;BME280;66206;0.000;0.000;2023-05-19T00:35:14;98482.07;;;22.13;23.05
77212;BME280;66206;0.000;0.000;2023-05-19T00:37:41;98479.11;;;22.09;22.87
77212;BME280;66206;0.000;0.000;2023-05-19T00:40:08;98473.21;;;22.18;22.95
77212;BME280;66206;0.000;0.000;2023-05-19T00:42:35;98472.68;;;22.14;22.95
77212;BME280;66206;0.000;0.000;2023-05-19T00:45:02;98472.29;;;22.03;23.02
77212;BME280;66206;0.000;0.000;2023-05-19T00:47:29;98472.77;;;22.02;22.94
77212;BME280;66206;0.000;0.000;2023-05-19T00:49:56;98470.98;;;22.07;22.96
77212;BME280;66206;0.000;0.000;2023-05-19T00:52:23;98466.54;;;22.03;22.97
77212;BME280;66206;0.000;0.000;2023-05-19T00:54:50;98466.60;;;22.00;23.00
77212;BME280;66206;0.000;0.000;2023-05-19T00:57:17;98465.46;;;22.16;22.92
77212;BME280;66206;0.000;0.000;2023-05-19T00:59:44;98462.66;;;22.05;22.87
77212;BME280;66206;0.000;0.000;2023-05-19T01:02:10;98462.17;;;21.96;22.99
77212;BME280;66206;0.000;0.000;2023-05-19T01:04:37;98460.48;;;22.00;22.94
77212;BME280;66206;0.000;0.000;2023-05-19T01:07:05;98461.03;;;22.00;22.98
77212;BME280;66206;0.000;0.000;2023-05-19T01:09:32;98455.83;;;21.93;22.98
77212;BME280;66206;0.000;0.000;2023-05-19T01:11:59;98450.41;;;22.14;22.90
77212;BME280;66206;0.000;0.000;2023-05-19T01:14:28;98449.60;;;21.95;22.98
77212;BME280;66206;0.000;0.000;2023-05-19T01:16:57;98447.53;;;22.09;22.94
77212;BME280;66206;0.000;0.000;2023-05-19T01:19:30;98446.31;;;21.98;22.89
77212;BME280;66206;0.000;0.000;2023-05-19T01:21:58;98444.09;;;21.94;22.95
77212;BME280;66206;0.000;0.000;2023-05-19T01:24:23;98441.62;;;21.98;22.86
77212;BME280;66206;0.000;0.000;2023-05-19T01:26:50;98440.36;;;21.94;22.97
77212;BME280;66206;0.000;0.000;2023-05-19T01:29:23;98439.52;;;21.96;22.98
77212;BME280;66206;0.000;0.000;2023-05-19T01:31:43;98437.55;;;21.95;22.94
77212;BME280;66206;0.000;0.000;2023-05-19T01:34:11;98438.84;;;21.94;22.88
77212;BME280;66206;0.000;0.000;2023-05-19T01:36:38;98437.49;;;21.92;22.88
77212;BME280;66206;0.000;0.000;2023-05-19T01:39:06;98439.07;;;21.89;22.95
77212;BME280;66206;0.000;0.000;2023-05-19T01:41:33;98437.50;;;21.96;22.87
77212;BME280;66206;0.000;0.000;2023-05-19T01:44:00;98437.67;;;21.86;22.91
77212;BME280;66206;0.000;0.000;2023-05-19T01:46:27;98435.44;;;21.98;22.83
77212;BME280;66206;0.000;0.000;2023-05-19T01:48:54;98437.02;;;22.00;22.84
77212;BME280;66206;0.000;0.000;2023-05-19T01:51:21;98440.11;;;21.89;22.95
77212;BME280;66206;0.000;0.000;2023-05-19T01:53:48;98436.49;;;21.88;22.91
77212;BME280;66206;0.000;0.000;2023-05-19T01:56:15;98432.85;;;21.93;22.93
77212;BME280;66206;0.000;0.000;2023-05-19T01:58:41;98435.36;;;21.85;23.02
77212;BME280;66206;0.000;0.000;2023-05-19T02:01:12;98439.63;;;21.90;22.91
77212;BME280;66206;0.000;0.000;2023-05-19T02:03:41;98441.79;;;21.87;22.92
77212;BME280;66206;0.000;0.000;2023-05-19T02:06:06;98445.97;;;22.01;22.95
77212;BME280;66206;0.000;0.000;2023-05-19T02:08:31;98445.34;;;22.03;22.89
77212;BME280;66206;0.000;0.000;2023-05-19T02:11:02;98449.74;;;21.94;22.87
77212;BME280;66206;0.000;0.000;2023-05-19T02:13:30;98452.64;;;21.98;22.89
77212;BME280;66206;0.000;0.000;2023-05-19T02:15:54;98452.77;;;21.84;22.93
77212;BME280;66206;0.000;0.000;2023-05-19T02:18:19;98452.75;;;21.87;22.94
77212;BME280;66206;0.000;0.000;2023-05-19T02:20:46;98447.40;;;21.92;22.92
77212;BME280;66206;0.000;0.000;2023-05-19T02:23:13;98445.68;;;21.94;22.87
77212;BME280;66206;0.000;0.000;2023-05-19T02:25:40;98446.69;;;21.88;22.87
77212;BME280;66206;0.000;0.000;2023-05-19T02:28:07;98446.38;;;21.87;22.82
77212;BME280;66206;0.000;0.000;2023-05-19T02:30:33;98442.84;;;21.78;22.88
77212;BME280;66206;0.000;0.000;2023-05-19T02:33:00;98443.90;;;21.87;22.87
77212;BME280;66206;0.000;0.000;2023-05-19T02:35:27;98438.39;;;21.86;22.78
77212;BME280;66206;0.000;0.000;2023-05-19T02:37:54;98436.99;;;21.78;22.90
77212;BME280;66206;0.000;0.000;2023-05-19T02:40:21;98427.63;;;21.70;22.95
77212;BME280;66206;0.000;0.000;2023-05-19T02:42:47;98427.50;;;21.89;22.84
77212;BME280;66206;0.000;0.000;2023-05-19T02:45:14;98423.20;;;21.76;22.90
77212;BME280;66206;0.000;0.000;2023-05-19T02:47:41;98419.83;;;21.94;22.88
77212;BME280;66206;0.000;0.000;2023-05-19T02:50:08;98416.80;;;21.82;22.82
77212;BME280;66206;0.000;0.000;2023-05-19T02:52:35;98408.38;;;21.85;22.92
77212;BME280;66206;0.000;0.000;2023-05-19T02:55:01;98408.78;;;21.95;22.89
77212;BME280;66206;0.000;0.000;2023-05-19T02:57:28;98409.67;;;21.84;22.89
77212;BME280;66206;0.000;0.000;2023-05-19T02:59:55;98411.08;;;21.70;22.91
77212;BME280;66206;0.000;0.000;2023-05-19T03:02:22;98406.80;;;21.75;22.70
77212;BME280;66206;0.000;0.000;2023-05-19T03:04:48;98407.07;;;21.83;22.54
77212;BME280;66206;0.000;0.000;2023-05-19T03:07:15;98409.52;;;21.85;22.51
77212;BME280;66206;0.000;0.000;2023-05-19T03:09:42;98407.98;;;22.04;22.54
77212;BME280;66206;0.000;0.000;2023-05-19T03:12:09;98406.87;;;21.97;22.68
77212;BME280;66206;0.000;0.000;2023-05-19T03:14:35;98408.45;;;21.95;22.80
77212;BME280;66206;0.000;0.000;2023-05-19T03:17:02;98409.88;;;21.88;22.87
77212;BME280;66206;0.000;0.000;2023-05-19T03:19:29;98408.09;;;21.69;22.94
77212;BME280;66206;0.000;0.000;2023-05-19T03:21:56;98411.18;;;21.89;22.94
77212;BME280;66206;0.000;0.000;2023-05-19T03:24:23;98412.85;;;21.79;22.97
77212;BME280;66206;0.000;0.000;2023-05-19T03:26:50;98414.72;;;21.96;22.95
77212;BME280;66206;0.000;0.000;2023-05-19T03:29:16;98416.53;;;21.71;23.04
77212;BME280;66206;0.000;0.000;2023-05-19T03:31:43;98421.08;;;21.82;22.93
77212;BME280;66206;0.000;0.000;2023-05-19T03:34:10;98421.10;;;21.79;23.01
77212;BME280;66206;0.000;0.000;2023-05-19T03:36:36;98424.57;;;21.84;23.01
77212;BME280;66206;0.000;0.000;2023-05-19T03:39:03;98425.25;;;21.70;23.01
77212;BME280;66206;0.000;0.000;2023-05-19T03:41:30;98425.75;;;21.91;22.92
77212;BME280;66206;0.000;0.000;2023-05-19T03:43:57;98422.42;;;21.75;23.03
77212;BME280;66206;0.000;0.000;2023-05-19T03:46:23;98423.49;;;21.70;23.04
77212;BME280;66206;0.000;0.000;2023-05-19T03:48:50;98420.25;;;21.73;23.06
77212;BME280;66206;0.000;0.000;2023-05-19T03:51:17;98425.05;;;21.84;23.08
77212;BME280;66206;0.000;0.000;2023-05-19T03:53:44;98428.71;;;21.79;23.07
77212;BME280;66206;0.000;0.000;2023-05-19T03:56:10;98427.43;;;21.77;23.01
77212;BME280;66206;0.000;0.000;2023-05-19T03:58:37;98431.33;;;21.85;22.99
77212;BME280;66206;0.000;0.000;2023-05-19T04:01:04;98433.48;;;21.78;23.05
77212;BME280;66206;0.000;0.000;2023-05-19T04:03:31;98437.53;;;21.76;23.09
77212;BME280;66206;0.000;0.000;2023-05-19T04:05:57;98444.30;;;21.78;23.06
77212;BME280;66206;0.000;0.000;2023-05-19T04:08:24;98443.85;;;21.92;22.95
77212;BME280;66206;0.000;0.000;2023-05-19T04:10:51;98443.71;;;21.89;23.04
77212;BME280;66206;0.000;0.000;2023-05-19T04:13:18;98441.66;;;21.91;23.04
77212;BME280;66206;0.000;0.000;2023-05-19T04:15:45;98441.25;;;21.77;23.08
77212;BME280;66206;0.000;0.000;2023-05-19T04:18:12;98443.57;;;21.67;23.09
77212;BME280;66206;0.000;0.000;2023-05-19T04:20:39;98441.50;;;21.78;23.05
77212;BME280;66206;0.000;0.000;2023-05-19T04:23:05;98440.60;;;21.85;23.07
77212;BME280;66206;0.000;0.000;2023-05-19T04:25:32;98441.67;;;21.82;23.14
77212;BME280;66206;0.000;0.000;2023-05-19T04:27:59;98443.14;;;21.64;23.15
77212;BME280;66206;0.000;0.000;2023-05-19T04:30:26;98443.44;;;21.77;23.22
77212;BME280;66206;0.000;0.000;2023-05-19T04:32:52;98444.03;;;21.71;23.20
77212;BME280;66206;0.000;0.000;2023-05-19T04:35:19;98444.17;;;21.72;23.22
77212;BME280;66206;0.000;0.000;2023-05-19T04:37:46;98444.07;;;21.67;23.22
77212;BME280;66206;0.000;0.000;2023-05-19T04:40:13;98444.95;;;21.54;23.27
77212;BME280;66206;0.000;0.000;2023-05-19T04:42:39;98446.84;;;21.78;23.28
77212;BME280;66206;0.000;0.000;2023-05-19T04:45:07;98446.39;;;21.62;23.33
77212;BME280;66206;0.000;0.000;2023-05-19T04:47:33;98443.08;;;21.73;23.29
77212;BME280;66206;0.000;0.000;2023-05-19T04:50:00;98443.29;;;21.59;23.29
77212;BME280;66206;0.000;0.000;2023-05-19T04:52:27;98444.02;;;21.63;23.34
77212;BME280;66206;0.000;0.000;2023-05-19T04:54:54;98444.24;;;21.83;23.33
77212;BME280;66206;0.000;0.000;2023-05-19T04:57:21;98445.67;;;21.74;23.35
77212;BME280;66206;0.000;0.000;2023-05-19T04:59:47;98442.47;;;21.83;23.44
77212;BME280;66206;0.000;0.000;2023-05-19T05:02:14;98443.29;;;21.73;23.31
77212;BME280;66206;0.000;0.000;2023-05-19T05:04:41;98439.84;;;21.67;23.42
77212;BME280;66206;0.000;0.000;2023-05-19T05:07:08;98442.36;;;21.80;23.42
77212;BME280;66206;0.000;0.000;2023-05-19T05:09:35;98443.21;;;21.80;23.34
77212;BME280;66206;0.000;0.000;2023-05-19T05:12:02;98443.62;;;21.72;23.48
77212;BME280;66206;0.000;0.000;2023-05-19T05:14:29;98443.02;;;21.76;23.39
77212;BME280;66206;0.000;0.000;2023-05-19T05:16:56;98438.32;;;21.88;23.35
77212;BME280;66206;0.000;0.000;2023-05-19T05:19:23;98437.41;;;21.59;23.51
77212;BME280;66206;0.000;0.000;2023-05-19T05:21:50;98436.32;;;21.74;23.45
77212;BME280;66206;0.000;0.000;2023-05-19T05:24:17;98434.52;;;21.63;23.45
77212;BME280;66206;0.000;0.000;2023-05-19T05:26:44;98437.00;;;21.74;23.45
77212;BME280;66206;0.000;0.000;2023-05-19T05:29:11;98434.64;;;21.95;23.49
77212;BME280;66206;0.000;0.000;2023-05-19T05:31:37;98431.42;;;21.90;23.40
77212;BME280;66206;0.000;0.000;2023-05-19T05:34:04;98429.13;;;21.57;23.53
77212;BME280;66206;0.000;0.000;2023-05-19T05:36:31;98426.08;;;21.67;23.48
77212;BME280;66206;0.000;0.000;2023-05-19T05:38:58;98426.29;;;21.75;23.50
77212;BME280;66206;0.000;0.000;2023-05-19T05:41:24;98428.96;;;21.75;23.57
77212;BME280;66206;0.000;0.000;2023-05-19T05:43:51;98430.82;;;21.80;23.58
77212;BME280;66206;0.000;0.000;2023-05-19T05:46:18;98431.50;;;21.63;23.62
77212;BME280;66206;0.000;0.000;2023-05-19T05:48:45;98436.02;;;21.71;23.56
77212;BME280;66206;0.000;0.000;2023-05-19T05:51:12;98435.10;;;21.63;23.65
77212;BME280;66206;0.000;0.000;2023-05-19T05:53:39;98432.45;;;21.81;23.65
77212;BME280;66206;0.000;0.000;2023-05-19T05:56:07;98427.04;;;21.83;23.70
77212;BME280;66206;0.000;0.000;2023-05-19T05:58:34;98427.31;;;21.82;23.70
77212;BME280;66206;0.000;0.000;2023-05-19T06:01:01;98427.56;;;21.78;23.69
77212;BME280;66206;0.000;0.000;2023-05-19T06:03:27;98430.48;;;21.97;23.64
77212;BME280;66206;0.000;0.000;2023-05-19T06:05:54;98431.57;;;21.71;23.76
77212;BME280;66206;0.000;0.000;2023-05-19T06:08:21;98436.86;;;21.74;23.68
77212;BME280;66206;0.000;0.000;2023-05-19T06:10:48;98437.23;;;21.98;23.67
77212;BME280;66206;0.000;0.000;2023-05-19T06:13:14;98431.62;;;21.73;23.76
77212;BME280;66206;0.000;0.000;2023-05-19T06:15:41;98432.84;;;21.86;23.73
77212;BME280;66206;0.000;0.000;2023-05-19T06:18:08;98428.35;;;21.72;23.82
77212;BME280;66206;0.000;0.000;2023-05-19T06:20:35;98427.72;;;21.72;23.83
77212;BME280;66206;0.000;0.000;2023-05-19T06:23:01;98425.29;;;21.77;23.85
77212;BME280;66206;0.000;0.000;2023-05-19T06:25:28;98419.74;;;21.83;23.82
77212;BME280;66206;0.000;0.000;2023-05-19T06:27:55;98419.67;;;21.82;23.74
77212;BME280;66206;0.000;0.000;2023-05-19T06:30:22;98421.58;;;21.78;23.80
77212;BME280;66206;0.000;0.000;2023-05-19T06:32:48;98423.21;;;21.75;23.87
77212;BME280;66206;0.000;0.000;2023-05-19T06:35:15;98426.17;;;21.96;23.77
77212;BME280;66206;0.000;0.000;2023-05-19T06:37:42;98424.05;;;21.69;23.91
77212;BME280;66206;0.000;0.000;2023-05-19T06:40:09;98425.73;;;21.63;23.90
77212;BME280;66206;0.000;0.000;2023-05-19T06:42:36;98429.97;;;21.71;23.91
77212;BME280;66206;0.000;0.000;2023-05-19T06:45:03;98429.84;;;21.74;23.94
77212;BME280;66206;0.000;0.000;2023-05-19T06:47:30;98432.53;;;21.81;23.87
77212;BME280;66206;0.000;0.000;2023-05-19T06:49:57;98431.02;;;21.68;23.94
77212;BME280;66206;0.000;0.000;2023-05-19T06:52:23;98431.56;;;21.74;23.99
77212;BME280;66206;0.000;0.000;2023-05-19T06:54:50;98429.04;;;21.84;24.02
77212;BME280;66206;0.000;0.000;2023-05-19T06:57:17;98423.46;;;21.86;24.42
77212;BME280;66206;0.000;0.000;2023-05-19T06:59:44;98420.23;;;21.86;24.48
77212;BME280;66206;0.000;0.000;2023-05-19T07:02:11;98421.42;;;22.12;24.52
77212;BME280;66206;0.000;0.000;2023-05-19T07:04:37;98422.82;;;21.87;24.71
77212;BME280;66206;0.000;0.000;2023-05-19T07:07:04;98424.12;;;21.94;24.70
77212;BME280;66206;0.000;0.000;2023-05-19T07:09:31;98419.45;;;21.99;24.74
77212;BME280;66206;0.000;0.000;2023-05-19T07:11:58;98416.08;;;22.01;24.80
77212;BME280;66206;0.000;0.000;2023-05-19T07:14:24;98412.54;;;22.03;24.81
77212;BME280;66206;0.000;0.000;2023-05-19T07:16:51;98407.01;;;22.04;25.12
77212;BME280;66206;0.000;0.000;2023-05-19T07:19:18;98409.14;;;22.40;25.40
77212;BME280;66206;0.000;0.000;2023-05-19T07:21:45;98406.46;;;22.15;25.44
77212;BME280;66206;0.000;0.000;2023-05-19T07:24:11;98405.93;;;22.29;25.35
77212;BME280;66206;0.000;0.000;2023-05-19T07:26:38;98399.91;;;22.48;25.61
77212;BME280;66206;0.000;0.000;2023-05-19T07:29:05;98402.54;;;22.40;25.19
77212;BME280;66206;0.000;0.000;2023-05-19T07:31:32;98402.81;;;22.40;25.31
77212;BME280;66206;0.000;0.000;2023-05-19T07:33:59;98399.88;;;22.19;25.61
77212;BME280;66206;0.000;0.000;2023-05-19T07:36:26;98399.01;;;21.80;25.93
77212;BME280;66206;0.000;0.000;2023-05-19T07:38:53;98397.38;;;22.29;25.80
77212;BME280;66206;0.000;0.000;2023-05-19T07:41:19;98394.17;;;22.41;25.83
77212;BME280;66206;0.000;0.000;2023-05-19T07:43:46;98390.85;;;22.45;25.69
77212;BME280;66206;0.000;0.000;2023-05-19T07:46:13;98392.94;;;22.33;25.89
77212;BME280;66206;0.000;0.000;2023-05-19T07:48:40;98390.27;;;22.61;25.57
77212;BME280;66206;0.000;0.000;2023-05-19T07:51:07;98389.77;;;22.78;25.48
77212;BME280;66206;0.000;0.000;2023-05-19T07:53:33;98384.53;;;22.76;25.44
77212;BME280;66206;0.000;0.000;2023-05-19T07:56:00;98385.99;;;22.69;25.48
77212;BME280;66206;0.000;0.000;2023-05-19T07:58:27;98384.69;;;22.67;25.64
77212;BME280;66206;0.000;0.000;2023-05-19T08:00:55;98382.53;;;22.60;25.58
77212;BME280;66206;0.000;0.000;2023-05-19T08:03:22;98384.96;;;22.66;25.68
77212;BME280;66206;0.000;0.000;2023-05-19T08:05:49;98388.20;;;22.82;25.48
77212;BME280;66206;0.000;0.000;2023-05-19T08:08:16;98385.61;;;22.94;24.92
77212;BME280;66206;0.000;0.000;2023-05-19T08:10:43;98387.81;;;22.76;25.47
77212;BME280;66206;0.000;0.000;2023-05-19T08:13:10;98380.72;;;22.36;25.57
77212;BME280;66206;0.000;0.000;2023-05-19T08:15:38;98385.17;;;23.12;25.37
77212;BME280;66206;0.000;0.000;2023-05-19T08:18:04;98390.69;;;23.04;25.23
77212;BME280;66206;0.000;0.000;2023-05-19T08:20:31;98385.71;;;22.74;25.35
77212;BME280;66206;0.000;0.000;2023-05-19T08:22:58;98382.41;;;22.71;25.50
77212;BME280;66206;0.000;0.000;2023-05-19T08:25:25;98382.64;;;22.95;25.36
77212;BME280;66206;0.000;0.000;2023-05-19T08:27:52;98383.64;;;22.88;25.36
77212;BME280;66206;0.000;0.000;2023-05-19T08:30:19;98377.79;;;23.24;25.10
77212;BME280;66206;0.000;0.000;2023-05-19T08:32:46;98386.07;;;23.25;25.03
77212;BME280;66206;0.000;0.000;2023-05-19T08:35:12;98382.04;;;23.10;24.93
77212;BME280;66206;0.000;0.000;2023-05-19T08:37:39;98380.51;;;23.02;25.05
77212;BME280;66206;0.000;0.000;2023-05-19T08:40:06;98374.90;;;23.32;24.79
77212;BME280;66206;0.000;0.000;2023-05-19T08:42:36;98373.96;;;23.42;24.62
77212;BME280;66206;0.000;0.000;2023-05-19T08:45:03;98373.71;;;23.03;24.96
77212;BME280;66206;0.000;0.000;2023-05-19T08:47:30;98368.74;;;23.25;24.85
77212;BME280;66206;0.000;0.000;2023-05-19T08:49:59;98366.25;;;23.20;24.79
77212;BME280;66206;0.000;0.000;2023-05-19T08:52:25;98367.06;;;22.93;25.18
77212;BME280;66206;0.000;0.000;2023-05-19T08:54:54;98367.76;;;23.23;24.97
77212;BME280;66206;0.000;0.000;2023-05-19T08:57:19;98369.14;;;23.46;24.75
77212;BME280;66206;0.000;0.000;2023-05-19T08:59:46;98365.89;;;23.36;24.81
77212;BME280;66206;0.000;0.000;2023-05-19T09:02:14;98363.88;;;23.17;24.52
77212;BME280;66206;0.000;0.000;2023-05-19T09:04:42;98361.71;;;23.44;24.27
77212;BME280;66206;0.000;0.000;2023-05-19T09:07:09;98360.53;;;23.54;24.26
77212;BME280;66206;0.000;0.000;2023-05-19T09:09:35;98360.65;;;23.83;24.28
77212;BME280;66206;0.000;0.000;2023-05-19T09:12:02;98360.54;;;23.53;24.55
77212;BME280;66206;0.000;0.000;2023-05-19T09:14:29;98358.93;;;23.48;24.67
77212;BME280;66206;0.000;0.000;2023-05-19T09:16:57;98360.55;;;23.44;24.61
77212;BME280;66206;0.000;0.000;2023-05-19T09:19:25;98359.34;;;23.52;24.67
77212;BME280;66206;0.000;0.000;2023-05-19T09:21:57;98363.57;;;23.44;24.73
77212;BME280;66206;0.000;0.000;2023-05-19T09:24:24;98361.33;;;23.31;24.66
77212;BME280;66206;0.000;0.000;2023-05-19T09:26:52;98357.52;;;23.25;24.87
77212;BME280;66206;0.000;0.000;2023-05-19T09:29:20;98356.10;;;23.32;24.72
77212;BME280;66206;0.000;0.000;2023-05-19T09:31:47;98357.91;;;23.41;24.44
77212;BME280;66206;0.000;0.000;2023-05-19T09:34:14;98356.75;;;23.40;24.68
77212;BME280;66206;0.000;0.000;2023-05-19T09:36:41;98356.04;;;23.33;24.78
77212;BME280;66206;0.000;0.000;2023-05-19T09:39:11;98352.06;;;23.56;24.53
77212;BME280;66206;0.000;0.000;2023-05-19T09:41:33;98352.18;;;23.55;24.47
77212;BME280;66206;0.000;0.000;2023-05-19T09:44:00;98354.00;;;23.51;24.57
77212;BME280;66206;0.000;0.000;2023-05-19T09:46:27;98354.27;;;23.32;24.59
77212;BME280;66206;0.000;0.000;2023-05-19T09:48:56;98349.29;;;23.56;24.49
77212;BME280;66206;0.000;0.000;2023-05-19T09:51:23;98347.62;;;23.38;24.81
77212;BME280;66206;0.000;0.000;2023-05-19T09:53:50;98345.74;;;23.47;24.61
77212;BME280;66206;0.000;0.000;2023-05-19T09:56:17;98345.51;;;23.21;24.77
77212;BME280;66206;0.000;0.000;2023-05-19T09:58:44;98338.50;;;23.35;24.63
77212;BME280;66206;0.000;0.000;2023-05-19T10:01:11;98336.01;;;23.41;24.61
77212;BME280;66206;0.000;0.000;2023-05-19T10:03:38;98331.46;;;23.43;24.60
77212;BME280;66206;0.000;0.000;2023-05-19T10:06:06;98327.25;;;23.86;24.17
77212;BME280;66206;0.000;0.000;2023-05-19T10:08:33;98327.69;;;23.46;24.61
77212;BME280;66206;0.000;0.000;2023-05-19T10:11:00;98321.09;;;23.36;24.74
77212;BME280;66206;0.000;0.000;2023-05-19T10:13:27;98317.21;;;23.09;24.91
77212;BME280;66206;0.000;0.000;2023-05-19T10:15:54;98319.43;;;22.90;24.83
77212;BME280;66206;0.000;0.000;2023-05-19T10:18:21;98317.77;;;22.76;25.22
77212;BME280;66206;0.000;0.000;2023-05-19T10:20:48;98318.59;;;22.54;25.33
77212;BME280;66206;0.000;0.000;2023-05-19T10:23:15;98307.32;;;22.47;25.41
77212;BME280;66206;0.000;0.000;2023-05-19T10:25:42;98300.95;;;22.53;25.37
77212;BME280;66206;0.000;0.000;2023-05-19T10:28:10;98292.67;;;22.87;25.11
77212;BME280;66206;0.000;0.000;2023-05-19T10:30:40;98292.30;;;23.15;24.96
77212;BME280;66206;0.000;0.000;2023-05-19T10:33:08;98287.06;;;23.44;24.75
77212;BME280;66206;0.000;0.000;2023-05-19T10:35:41;98287.89;;;22.85;25.30
77212;BME280;66206;0.000;0.000;2023-05-19T10:38:07;98286.01;;;23.48;24.61
77212;BME280;66206;0.000;0.000;2023-05-19T10:40:32;98285.36;;;23.39;24.70
77212;BME280;66206;0.000;0.000;2023-05-19T10:43:02;98282.72;;;23.44;24.76
77212;BME280;66206;0.000;0.000;2023-05-19T10:45:27;98275.43;;;23.54;24.63
77212;BME280;66206;0.000;0.000;2023-05-19T10:47:56;98272.34;;;23.23;24.96
77212;BME280;66206;0.000;0.000;2023-05-19T10:50:22;98272.00;;;23.55;24.90
77212;BME280;66206;0.000;0.000;2023-05-19T10:52:51;98266.54;;;23.55;24.65
77212;BME280;66206;0.000;0.000;2023-05-19T10:55:43;98273.04;;;23.60;24.61
77212;BME280;66206;0.000;0.000;2023-05-19T10:57:52;98274.43;;;23.24;25.18
77212;BME280;66206;0.000;0.000;2023-05-19T11:00:25;98274.67;;;23.32;25.17
77212;BME280;66206;0.000;0.000;2023-05-19T11:02:42;98267.99;;;23.68;24.62
77212;BME280;66206;0.000;0.000;2023-05-19T11:05:10;98267.50;;;23.88;24.42
77212;BME280;66206;0.000;0.000;2023-05-19T11:07:39;98270.95;;;23.68;24.55
77212;BME280;66206;0.000;0.000;2023-05-19T11:10:07;98266.31;;;23.64;24.50
77212;BME280;66206;0.000;0.000;2023-05-19T11:12:41;98266.98;;;23.48;24.69
77212;BME280;66206;0.000;0.000;2023-05-19T11:15:04;98257.63;;;23.37;24.78
77212;BME280;66206;0.000;0.000;2023-05-19T11:17:31;98264.51;;;23.14;25.38
77212;BME280;66206;0.000;0.000;2023-05-19T11:19:58;98267.93;;;23.05;25.29
77212;BME280;66206;0.000;0.000;2023-05-19T11:22:25;98268.86;;;23.58;24.77
77212;BME280;66206;0.000;0.000;2023-05-19T11:24:53;98267.01;;;23.84;24.53
77212;BME280;66206;0.000;0.000;2023-05-19T11:27:22;98259.66;;;23.87;24.47
77212;BME280;66206;0.000;0.000;2023-05-19T11:29:50;98259.79;;;23.43;24.88
77212;BME280;66206;0.000;0.000;2023-05-19T11:32:18;98264.09;;;23.59;24.65
77212;BME280;66206;0.000;0.000;2023-05-19T11:34:46;98257.88;;;23.51;24.84
77212;BME280;66206;0.000;0.000;2023-05-19T11:37:13;98258.98;;;23.55;24.72
77212;BME280;66206;0.000;0.000;2023-05-19T11:39:40;98248.14;;;23.63;24.80
77212;BME280;66206;0.000;0.000;2023-05-19T11:42:07;98245.49;;;23.62;24.84
77212;BME280;66206;0.000;0.000;2023-05-19T11:44:34;98247.03;;;23.82;24.63
77212;BME280;66206;0.000;0.000;2023-05-19T11:47:01;98239.27;;;23.92;24.59
77212;BME280;66206;0.000;0.000;2023-05-19T11:49:29;98235.68;;;23.27;25.20
77212;BME280;66206;0.000;0.000;2023-05-19T11:51:56;98235.67;;;23.33;24.96
77212;BME280;66206;0.000;0.000;2023-05-19T11:54:27;98235.73;;;23.72;24.68
77212;BME280;66206;0.000;0.000;2023-05-19T11:56:49;98231.08;;;23.47;24.95
77212;BME280;66206;0.000;0.000;2023-05-19T11:59:16;98226.81;;;23.45;24.97
77212;BME280;66206;0.000;0.000;2023-05-19T12:01:43;98221.39;;;23.58;24.73
77212;BME280;66206;0.000;0.000;2023-05-19T12:04:10;98215.92;;;23.31;24.91
77212;BME280;66206;0.000;0.000;2023-05-19T12:06:36;98219.77;;;23.67;24.67
77212;BME280;66206;0.000;0.000;2023-05-19T12:09:04;98219.92;;;23.22;25.03
77212;BME280;66206;0.000;0.000;2023-05-19T12:11:31;98214.11;;;23.43;24.91
77212;BME280;66206;0.000;0.000;2023-05-19T12:13:58;98211.55;;;23.71;24.81
77212;BME280;66206;0.000;0.000;2023-05-19T12:16:31;98218.08;;;23.37;25.09
77212;BME280;66206;0.000;0.000;2023-05-19T12:18:54;98214.13;;;23.37;25.12
77212;BME280;66206;0.000;0.000;2023-05-19T12:21:20;98204.14;;;23.70;24.79
77212;BME280;66206;0.000;0.000;2023-05-19T12:23:47;98198.55;;;23.54;24.97
77212;BME280;66206;0.000;0.000;2023-05-19T12:26:14;98204.92;;;23.57;24.69
77212;BME280;66206;0.000;0.000;2023-05-19T12:28:43;98204.04;;;23.42;24.85
77212;BME280;66206;0.000;0.000;2023-05-19T12:31:10;98209.59;;;23.11;25.18
77212;BME280;66206;0.000;0.000;2023-05-19T12:33:37;98210.79;;;23.62;25.05
77212;BME280;66206;0.000;0.000;2023-05-19T12:36:04;98205.04;;;23.57;25.29
77212;BME280;66206;0.000;0.000;2023-05-19T12:38:31;98200.55;;;23.61;24.96
77212;BME280;66206;0.000;0.000;2023-05-19T12:40:59;98196.84;;;23.68;24.85
77212;BME280;66206;0.000;0.000;2023-05-19T12:43:26;98195.87;;;23.68;24.87
77212;BME280;66206;0.000;0.000;2023-05-19T12:45:53;98191.55;;;23.51;25.13
77212;BME280;66206;0.000;0.000;2023-05-19T12:48:20;98193.37;;;23.62;25.08
77212;BME280;66206;0.000;0.000;2023-05-19T12:50:47;98189.43;;;23.34;25.26
77212;BME280;66206;0.000;0.000;2023-05-19T12:53:16;98186.44;;;23.54;25.19
77212;BME280;66206;0.000;0.000;2023-05-19T12:55:43;98190.36;;;23.52;24.95
77212;BME280;66206;0.000;0.000;2023-05-19T12:58:11;98186.86;;;23.85;24.92
77212;BME280;66206;0.000;0.000;2023-05-19T13:00:39;98189.44;;;23.67;25.01
77212;BME280;66206;0.000;0.000;2023-05-19T13:03:07;98187.42;;;23.54;24.84
77212;BME280;66206;0.000;0.000;2023-05-19T13:05:35;98181.33;;;23.16;25.19
77212;BME280;66206;0.000;0.000;2023-05-19T13:08:04;98176.02;;;23.34;25.36